createdAt,value
2016-07-16T00:00:43.903Z,971.4
2016-07-16T00:01:43.904Z,971.39
2016-07-16T00:02:43.911Z,971.4
2016-07-16T00:03:43.918Z,971.39
2016-07-16T00:04:43.932Z,971.4
2016-07-16T00:05:43.939Z,971.42
2016-07-16T00:06:43.949Z,971.45
2016-07-16T00:07:43.957Z,971.44
2016-07-16T00:08:43.958Z,971.42
2016-07-16T00:09:43.972Z,971.4
2016-07-16T00:10:43.980Z,971.4
2016-07-16T00:11:43.987Z,971.37
2016-07-16T00:12:43.998Z,971.38
2016-07-16T00:13:44.005Z,971.38
2016-07-16T00:14:44.002Z,971.4
2016-07-16T00:15:44.021Z,971.4
2016-07-16T00:16:44.028Z,971.42
2016-07-16T00:17:44.036Z,971.35
2016-07-16T00:18:44.035Z,971.38
2016-07-16T00:19:44.042Z,971.36
2016-07-16T00:20:44.051Z,971.38
2016-07-16T00:21:44.057Z,971.44
2016-07-16T00:22:44.067Z,971.4
2016-07-16T00:23:44.076Z,971.37
2016-07-16T00:24:44.081Z,971.41
2016-07-16T00:25:44.098Z,971.4
2016-07-16T00:26:44.098Z,971.39
2016-07-16T00:27:44.104Z,971.4
2016-07-16T00:28:44.119Z,971.4
2016-07-16T00:29:44.130Z,971.39
2016-07-16T00:30:44.128Z,971.45
2016-07-16T00:31:44.135Z,971.47
2016-07-16T00:32:44.145Z,971.46
2016-07-16T00:33:44.161Z,971.44
2016-07-16T00:34:44.160Z,971.47
2016-07-16T00:35:44.171Z,971.42
2016-07-16T00:36:44.177Z,971.46
2016-07-16T00:37:44.182Z,971.41
2016-07-16T00:38:44.202Z,971.39
2016-07-16T00:39:44.205Z,971.34
2016-07-16T00:40:44.236Z,971.33
2016-07-16T00:41:44.219Z,971.37
2016-07-16T00:42:44.220Z,971.3
2016-07-16T00:43:44.238Z,971.36
2016-07-16T00:44:44.252Z,971.37
2016-07-16T00:45:44.251Z,971.37
2016-07-16T00:46:44.276Z,971.34
2016-07-16T00:47:44.268Z,971.32
2016-07-16T00:48:44.264Z,971.32
2016-07-16T00:49:44.299Z,971.34
2016-07-16T00:50:44.288Z,971.33
2016-07-16T00:51:44.291Z,971.33
2016-07-16T00:52:44.301Z,971.34
2016-07-16T00:53:44.307Z,971.34
2016-07-16T00:54:44.321Z,971.32
2016-07-16T00:55:44.341Z,971.34
2016-07-16T00:56:44.333Z,971.33
2016-07-16T00:57:44.342Z,971.35
2016-07-16T00:58:44.365Z,971.35
2016-07-16T00:59:44.366Z,971.36
2016-07-16T01:00:44.375Z,971.37
2016-07-16T01:01:44.369Z,971.39
2016-07-16T01:02:44.387Z,971.39
2016-07-16T01:03:44.391Z,971.39
2016-07-16T01:04:44.397Z,971.39
2016-07-16T01:05:44.400Z,971.42
2016-07-16T01:06:44.415Z,971.39
2016-07-16T01:07:44.416Z,971.4
2016-07-16T01:08:44.431Z,971.4
2016-07-16T01:09:44.428Z,971.37
2016-07-16T01:10:44.446Z,971.35
2016-07-16T01:11:44.445Z,971.39
2016-07-16T01:12:44.452Z,971.37
2016-07-16T01:13:44.466Z,971.37
2016-07-16T01:14:44.485Z,971.38
2016-07-16T01:15:44.475Z,971.38
2016-07-16T01:16:44.528Z,971.39
2016-07-16T01:17:44.492Z,971.4
2016-07-16T01:18:44.508Z,971.37
2016-07-16T01:19:44.507Z,971.38
2016-07-16T01:20:44.521Z,971.4
2016-07-16T01:21:44.539Z,971.31
2016-07-16T01:22:44.556Z,971.32
2016-07-16T01:23:44.545Z,971.32
2016-07-16T01:24:44.567Z,971.32
2016-07-16T01:25:44.560Z,971.29
2016-07-16T01:26:44.571Z,971.34
2016-07-16T01:27:44.576Z,971.34
2016-07-16T01:28:44.584Z,971.36
2016-07-16T01:29:44.594Z,971.33
2016-07-16T01:30:44.600Z,971.35
2016-07-16T01:31:44.602Z,971.37
2016-07-16T01:32:44.615Z,971.32
2016-07-16T01:33:44.625Z,971.37
2016-07-16T01:34:44.628Z,971.37
2016-07-16T01:35:44.637Z,971.37
2016-07-16T01:36:44.647Z,971.35
2016-07-16T01:37:44.644Z,971.34
2016-07-16T01:38:44.654Z,971.35
2016-07-16T01:39:44.666Z,971.34
2016-07-16T01:40:44.674Z,971.32
2016-07-16T01:41:44.692Z,971.33
2016-07-16T01:42:44.685Z,971.34
2016-07-16T01:43:44.692Z,971.34
2016-07-16T01:44:44.706Z,971.42
2016-07-16T01:45:44.718Z,971.43
2016-07-16T01:46:44.725Z,971.41
2016-07-16T01:47:44.731Z,971.41
2016-07-16T01:48:44.735Z,971.42
2016-07-16T01:49:44.745Z,971.45
2016-07-16T01:50:44.752Z,971.42
2016-07-16T01:51:44.760Z,971.45
2016-07-16T01:52:44.768Z,971.46
2016-07-16T01:53:44.776Z,971.49
2016-07-16T01:54:44.783Z,971.46
2016-07-16T01:55:44.792Z,971.49
2016-07-16T01:56:44.792Z,971.44
2016-07-16T01:57:44.804Z,971.44
2016-07-16T01:58:44.816Z,971.45
2016-07-16T01:59:44.815Z,971.44
2016-07-16T02:00:44.824Z,971.44
2016-07-16T02:01:44.831Z,971.4
2016-07-16T02:02:44.844Z,971.41
2016-07-16T02:03:44.847Z,971.44
2016-07-16T02:04:44.854Z,971.42
2016-07-16T02:05:44.860Z,971.43
2016-07-16T02:06:44.875Z,971.43
2016-07-16T02:07:44.876Z,971.38
2016-07-16T02:08:44.889Z,971.39
2016-07-16T02:09:44.893Z,971.4
2016-07-16T02:10:44.903Z,971.41
2016-07-16T02:11:44.913Z,971.39
2016-07-16T02:12:44.916Z,971.42
2016-07-16T02:13:44.921Z,971.43
2016-07-16T02:14:44.928Z,971.42
2016-07-16T02:15:44.937Z,971.42
2016-07-16T02:16:44.946Z,971.4
2016-07-16T02:17:44.949Z,971.42
2016-07-16T02:18:44.961Z,971.37
2016-07-16T02:19:44.966Z,971.36
2016-07-16T02:20:44.978Z,971.4
2016-07-16T02:21:44.981Z,971.39
2016-07-16T02:22:44.999Z,971.38
2016-07-16T02:23:44.999Z,971.44
2016-07-16T02:24:45.011Z,971.42
2016-07-16T02:25:45.013Z,971.39
2016-07-16T02:26:45.021Z,971.42
2016-07-16T02:27:45.036Z,971.42
2016-07-16T02:28:45.035Z,971.41
2016-07-16T02:29:45.042Z,971.37
2016-07-16T02:30:45.058Z,971.37
2016-07-16T02:31:45.063Z,971.33
2016-07-16T02:32:45.065Z,971.34
2016-07-16T02:33:45.073Z,971.34
2016-07-16T02:34:45.081Z,971.34
2016-07-16T02:35:45.096Z,971.34
2016-07-16T02:36:45.104Z,971.35
2016-07-16T02:37:45.113Z,971.34
2016-07-16T02:38:45.118Z,971.37
2016-07-16T02:39:45.131Z,971.38
2016-07-16T02:40:45.125Z,971.32
2016-07-16T02:41:45.135Z,971.38
2016-07-16T02:42:45.151Z,971.39
2016-07-16T02:43:45.151Z,971.41
2016-07-16T02:44:45.158Z,971.39
2016-07-16T02:45:45.173Z,971.41
2016-07-16T02:46:45.171Z,971.37
2016-07-16T02:47:45.181Z,971.41
2016-07-16T02:48:45.198Z,971.38
2016-07-16T02:49:45.196Z,971.36
2016-07-16T02:50:45.201Z,971.39
2016-07-16T02:51:45.210Z,971.37
2016-07-16T02:52:45.226Z,971.33
2016-07-16T02:53:45.233Z,971.35
2016-07-16T02:54:45.240Z,971.38
2016-07-16T02:55:45.250Z,971.37
2016-07-16T02:56:45.253Z,971.35
2016-07-16T02:57:45.264Z,971.29
2016-07-16T02:58:45.265Z,971.34
2016-07-16T02:59:45.280Z,971.33
2016-07-16T03:00:45.286Z,971.35
2016-07-16T03:01:45.288Z,971.31
2016-07-16T03:02:45.293Z,971.33
2016-07-16T03:03:45.303Z,971.32
2016-07-16T03:04:45.310Z,971.32
2016-07-16T03:05:45.316Z,971.28
2016-07-16T03:06:45.332Z,971.31
2016-07-16T03:07:45.339Z,971.3
2016-07-16T03:08:45.339Z,971.31
2016-07-16T03:09:45.348Z,971.32
2016-07-16T03:10:45.358Z,971.35
2016-07-16T03:11:45.373Z,971.31
2016-07-16T03:12:45.371Z,971.31
2016-07-16T03:13:45.380Z,971.32
2016-07-16T03:14:45.386Z,971.33
2016-07-16T03:15:45.393Z,971.27
2016-07-16T03:16:45.402Z,971.24
2016-07-16T03:17:45.410Z,971.3
2016-07-16T03:18:45.424Z,971.28
2016-07-16T03:19:45.430Z,971.29
2016-07-16T03:20:45.431Z,971.35
2016-07-16T03:21:45.440Z,971.36
2016-07-16T03:22:45.448Z,971.32
2016-07-16T03:23:45.461Z,971.36
2016-07-16T03:24:45.463Z,971.31
2016-07-16T03:25:45.470Z,971.37
2016-07-16T03:26:45.479Z,971.38
2016-07-16T03:27:45.487Z,971.36
2016-07-16T03:28:45.501Z,971.37
2016-07-16T03:29:45.502Z,971.41
2016-07-16T03:30:45.507Z,971.36
2016-07-16T03:31:45.520Z,971.35
2016-07-16T03:32:45.535Z,971.37
2016-07-16T03:33:45.532Z,971.34
2016-07-16T03:34:45.543Z,971.37
2016-07-16T03:35:45.553Z,971.4
2016-07-16T03:36:45.562Z,971.42
2016-07-16T03:37:45.565Z,971.41
2016-07-16T03:38:45.578Z,971.41
2016-07-16T03:39:45.585Z,971.46
2016-07-16T03:40:45.593Z,971.45
2016-07-16T03:41:45.600Z,971.45
2016-07-16T03:42:45.606Z,971.48
2016-07-16T03:43:45.608Z,971.46
2016-07-16T03:44:45.621Z,971.42
2016-07-16T03:45:45.629Z,971.46
2016-07-16T03:46:45.637Z,971.46
2016-07-16T03:47:45.638Z,971.48
2016-07-16T03:48:45.647Z,971.44
2016-07-16T03:49:45.652Z,971.43
2016-07-16T03:50:45.668Z,971.4
2016-07-16T03:51:45.667Z,971.43
2016-07-16T03:52:45.674Z,971.42
2016-07-16T03:53:45.689Z,971.41
2016-07-16T03:54:45.690Z,971.41
2016-07-16T03:55:45.706Z,971.4
2016-07-16T03:56:45.711Z,971.39
2016-07-16T03:57:45.716Z,971.4
2016-07-16T03:58:45.726Z,971.4
2016-07-16T03:59:45.734Z,971.35
2016-07-16T04:00:45.732Z,971.35
2016-07-16T04:01:45.758Z,971.32
2016-07-16T04:02:45.757Z,971.32
2016-07-16T04:03:45.757Z,971.34
2016-07-16T04:04:45.774Z,971.34
2016-07-16T04:05:45.775Z,971.33
2016-07-16T04:06:45.782Z,971.37
2016-07-16T04:07:45.791Z,971.4
2016-07-16T04:08:45.802Z,971.42
2016-07-16T04:09:45.810Z,971.4
2016-07-16T04:10:45.819Z,971.43
2016-07-16T04:11:45.825Z,971.4
2016-07-16T04:12:45.835Z,971.37
2016-07-16T04:13:45.844Z,971.41
2016-07-16T04:14:45.846Z,971.42
2016-07-16T04:15:45.854Z,971.39
2016-07-16T04:16:45.867Z,971.44
2016-07-16T04:17:45.865Z,971.43
2016-07-16T04:18:45.888Z,971.48
2016-07-16T04:19:45.885Z,971.45
2016-07-16T04:20:45.890Z,971.47
2016-07-16T04:21:45.900Z,971.47
2016-07-16T04:22:45.901Z,971.43
2016-07-16T04:23:45.916Z,971.41
2016-07-16T04:24:45.915Z,971.41
2016-07-16T04:25:45.926Z,971.42
2016-07-16T04:26:45.937Z,971.42
2016-07-16T04:27:45.941Z,971.41
2016-07-16T04:28:45.948Z,971.48
2016-07-16T04:29:45.954Z,971.52
2016-07-16T04:30:45.968Z,971.52
2016-07-16T04:31:45.971Z,971.53
2016-07-16T04:32:45.983Z,971.5
2016-07-16T04:33:45.985Z,971.5
2016-07-16T04:34:45.991Z,971.47
2016-07-16T04:35:46.009Z,971.48
2016-07-16T04:36:46.015Z,971.46
2016-07-16T04:37:46.013Z,971.43
2016-07-16T04:38:46.030Z,971.43
2016-07-16T04:39:46.031Z,971.43
2016-07-16T04:40:46.037Z,971.43
2016-07-16T04:41:46.047Z,971.45
2016-07-16T04:42:46.053Z,971.44
2016-07-16T04:43:46.057Z,971.42
2016-07-16T04:44:46.074Z,971.44
2016-07-16T04:45:46.080Z,971.43
2016-07-16T04:46:46.084Z,971.43
2016-07-16T04:47:46.094Z,971.44
2016-07-16T04:48:46.104Z,971.45
2016-07-16T04:49:46.108Z,971.45
2016-07-16T04:50:46.113Z,971.45
2016-07-16T04:51:46.128Z,971.47
2016-07-16T04:52:46.136Z,971.46
2016-07-16T04:53:46.141Z,971.47
2016-07-16T04:54:46.142Z,971.54
2016-07-16T04:55:46.154Z,971.53
2016-07-16T04:56:46.160Z,971.51
2016-07-16T04:57:46.174Z,971.49
2016-07-16T04:58:46.227Z,971.48
2016-07-16T04:59:46.193Z,971.46
2016-07-16T05:00:46.196Z,971.49
2016-07-16T05:01:46.204Z,971.49
2016-07-16T05:02:46.213Z,971.49
2016-07-16T05:03:46.214Z,971.56
2016-07-16T05:04:46.226Z,971.55
2016-07-16T05:05:46.236Z,971.49
2016-07-16T05:06:46.241Z,971.49
2016-07-16T05:07:46.244Z,971.48
2016-07-16T05:08:46.256Z,971.48
2016-07-16T05:09:46.260Z,971.52
2016-07-16T05:10:46.276Z,971.53
2016-07-16T05:11:46.281Z,971.47
2016-07-16T05:12:46.283Z,971.5
2016-07-16T05:13:46.296Z,971.51
2016-07-16T05:14:46.304Z,971.48
2016-07-16T05:15:46.304Z,971.47
2016-07-16T05:16:46.311Z,971.44
2016-07-16T05:17:46.318Z,971.45
2016-07-16T05:18:46.326Z,971.44
2016-07-16T05:19:46.335Z,971.47
2016-07-16T05:20:46.348Z,971.49
2016-07-16T05:21:46.351Z,971.45
2016-07-16T05:22:46.366Z,971.48
2016-07-16T05:23:46.371Z,971.49
2016-07-16T05:24:46.375Z,971.53
2016-07-16T05:25:46.388Z,971.53
2016-07-16T05:26:46.386Z,971.56
2016-07-16T05:27:46.401Z,971.57
2016-07-16T05:28:46.408Z,971.57
2016-07-16T05:29:46.417Z,971.57
2016-07-16T05:30:46.423Z,971.58
2016-07-16T05:31:46.431Z,971.61
2016-07-16T05:32:46.442Z,971.59
2016-07-16T05:33:46.441Z,971.54
2016-07-16T05:34:46.455Z,971.54
2016-07-16T05:35:46.457Z,971.55
2016-07-16T05:36:46.463Z,971.58
2016-07-16T05:37:46.477Z,971.58
2016-07-16T05:38:46.485Z,971.62
2016-07-16T05:39:46.492Z,971.63
2016-07-16T05:40:46.495Z,971.63
2016-07-16T05:41:46.509Z,971.63
2016-07-16T05:42:46.510Z,971.59
2016-07-16T05:43:46.538Z,971.58
2016-07-16T05:44:46.529Z,971.57
2016-07-16T05:45:46.531Z,971.57
2016-07-16T05:46:46.545Z,971.53
2016-07-16T05:47:46.547Z,971.54
2016-07-16T05:48:46.555Z,971.53
2016-07-16T05:49:46.566Z,971.52
2016-07-16T05:50:46.581Z,971.48
2016-07-16T05:51:46.584Z,971.55
2016-07-16T05:52:46.590Z,971.53
2016-07-16T05:53:46.596Z,971.56
2016-07-16T05:54:46.600Z,971.58
2016-07-16T05:55:46.606Z,971.62
2016-07-16T05:56:46.631Z,971.64
2016-07-16T05:57:46.622Z,971.63
2016-07-16T05:58:46.632Z,971.64
2016-07-16T05:59:46.639Z,971.67
2016-07-16T06:00:46.643Z,971.65
2016-07-16T06:01:46.669Z,971.66
2016-07-16T06:02:46.660Z,971.66
2016-07-16T06:03:46.670Z,971.61
2016-07-16T06:04:46.680Z,971.59
2016-07-16T06:05:46.688Z,971.63
2016-07-16T06:06:46.696Z,971.6
2016-07-16T06:07:46.698Z,971.59
2016-07-16T06:08:46.712Z,971.58
2016-07-16T06:09:46.714Z,971.58
2016-07-16T06:10:46.720Z,971.57
2016-07-16T06:11:46.726Z,971.55
2016-07-16T06:12:46.736Z,971.59
2016-07-16T06:13:46.744Z,971.5
2016-07-16T06:14:46.750Z,971.52
2016-07-16T06:15:46.758Z,971.53
2016-07-16T06:16:46.765Z,971.5
2016-07-16T06:17:46.775Z,971.53
2016-07-16T06:18:46.793Z,971.52
2016-07-16T06:19:46.790Z,971.52
2016-07-16T06:20:46.798Z,971.54
2016-07-16T06:21:46.811Z,971.52
2016-07-16T06:22:46.820Z,971.55
2016-07-16T06:23:46.823Z,971.55
2016-07-16T06:24:46.826Z,971.58
2016-07-16T06:25:46.840Z,971.56
2016-07-16T06:26:46.851Z,971.54
2016-07-16T06:27:46.857Z,971.53
2016-07-16T06:28:46.860Z,971.54
2016-07-16T06:29:46.870Z,971.53
2016-07-16T06:30:46.875Z,971.51
2016-07-16T06:31:46.889Z,971.52
2016-07-16T06:32:46.901Z,971.53
2016-07-16T06:33:46.904Z,971.5
2016-07-16T06:34:46.913Z,971.49
2016-07-16T06:35:46.911Z,971.51
2016-07-16T06:36:46.926Z,971.49
2016-07-16T06:37:46.938Z,971.55
2016-07-16T06:38:46.943Z,971.46
2016-07-16T06:39:46.944Z,971.48
2016-07-16T06:40:46.960Z,971.5
2016-07-16T06:41:46.960Z,971.48
2016-07-16T06:42:46.974Z,971.5
2016-07-16T06:43:46.985Z,971.49
2016-07-16T06:44:46.991Z,971.49
2016-07-16T06:45:46.992Z,971.5
2016-07-16T06:46:46.997Z,971.47
2016-07-16T06:47:47.013Z,971.44
2016-07-16T06:48:47.018Z,971.43
2016-07-16T06:49:47.023Z,971.43
2016-07-16T06:50:47.039Z,971.44
2016-07-16T06:51:47.039Z,971.38
2016-07-16T06:52:47.056Z,971.44
2016-07-16T06:53:47.054Z,971.39
2016-07-16T06:54:47.069Z,971.4
2016-07-16T06:55:47.076Z,971.4
2016-07-16T06:56:47.082Z,971.37
2016-07-16T06:57:47.091Z,971.39
2016-07-16T06:58:47.090Z,971.38
2016-07-16T06:59:47.103Z,971.4
2016-07-16T07:00:47.106Z,971.39
2016-07-16T07:01:47.114Z,971.4
2016-07-16T07:02:47.122Z,971.4
2016-07-16T07:03:47.138Z,971.39
2016-07-16T07:04:47.151Z,971.35
2016-07-16T07:05:47.148Z,971.35
2016-07-16T07:06:47.154Z,971.33
2016-07-16T07:07:47.171Z,971.31
2016-07-16T07:08:47.178Z,971.31
2016-07-16T07:09:47.176Z,971.28
2016-07-16T07:10:47.197Z,971.26
2016-07-16T07:11:47.203Z,971.29
2016-07-16T07:12:47.211Z,971.29
2016-07-16T07:13:47.211Z,971.28
2016-07-16T07:14:47.220Z,971.3
2016-07-16T07:15:47.234Z,971.3
2016-07-16T07:16:47.235Z,971.28
2016-07-16T07:17:47.261Z,971.29
2016-07-16T07:18:47.250Z,971.29
2016-07-16T07:19:47.268Z,971.27
2016-07-16T07:20:47.265Z,971.3
2016-07-16T07:21:47.275Z,971.29
2016-07-16T07:22:47.279Z,971.29
2016-07-16T07:23:47.287Z,971.28
2016-07-16T07:24:47.327Z,971.3
2016-07-16T07:25:47.334Z,971.27
2016-07-16T07:26:47.322Z,971.25
2016-07-16T07:27:47.325Z,971.24
2016-07-16T07:28:47.330Z,971.23
2016-07-16T07:29:47.343Z,971.22
2016-07-16T07:30:47.347Z,971.23
2016-07-16T07:31:47.350Z,971.22
2016-07-16T07:32:47.360Z,971.22
2016-07-16T07:33:47.377Z,971.23
2016-07-16T07:34:47.383Z,971.26
2016-07-16T07:35:47.392Z,971.28
2016-07-16T07:36:47.401Z,971.31
2016-07-16T07:37:47.403Z,971.38
2016-07-16T07:38:47.415Z,971.35
2016-07-16T07:39:47.416Z,971.39
2016-07-16T07:40:47.431Z,971.42
2016-07-16T07:41:47.436Z,971.44
2016-07-16T07:42:47.447Z,971.46
2016-07-16T07:43:47.455Z,971.51
2016-07-16T07:44:47.461Z,971.48
2016-07-16T07:45:47.467Z,971.48
2016-07-16T07:46:47.472Z,971.47
2016-07-16T07:47:47.479Z,971.51
2016-07-16T07:48:47.498Z,971.49
2016-07-16T07:49:47.502Z,971.5
2016-07-16T07:50:47.503Z,971.54
2016-07-16T07:51:47.512Z,971.51
2016-07-16T07:52:47.526Z,971.52
2016-07-16T07:53:47.532Z,971.51
2016-07-16T07:54:47.547Z,971.52
2016-07-16T07:55:47.554Z,971.52
2016-07-16T07:56:47.552Z,971.51
2016-07-16T07:57:47.567Z,971.52
2016-07-16T07:58:47.567Z,971.52
2016-07-16T07:59:47.581Z,971.52
2016-07-16T08:00:47.583Z,971.54
2016-07-16T08:01:47.590Z,971.53
2016-07-16T08:02:47.601Z,971.52
2016-07-16T08:03:47.606Z,971.53
2016-07-16T08:04:47.624Z,971.57
2016-07-16T08:05:47.623Z,971.52
2016-07-16T08:06:47.632Z,971.55
2016-07-16T08:07:47.647Z,971.57
2016-07-16T08:08:47.653Z,971.56
2016-07-16T08:09:47.656Z,971.61
2016-07-16T08:10:47.670Z,971.56
2016-07-16T08:11:47.677Z,971.53
2016-07-16T08:12:47.687Z,971.54
2016-07-16T08:13:47.688Z,971.57
2016-07-16T08:14:47.699Z,971.57
2016-07-16T08:15:47.709Z,971.58
2016-07-16T08:16:47.718Z,971.59
2016-07-16T08:17:47.727Z,971.54
2016-07-16T08:18:47.733Z,971.55
2016-07-16T08:19:47.734Z,971.56
2016-07-16T08:20:47.750Z,971.56
2016-07-16T08:21:47.759Z,971.57
2016-07-16T08:22:47.772Z,971.56
2016-07-16T08:23:47.765Z,971.6
2016-07-16T08:24:47.774Z,971.6
2016-07-16T08:25:47.785Z,971.56
2016-07-16T08:26:47.794Z,971.61
2016-07-16T08:27:47.796Z,971.62
2016-07-16T08:28:47.809Z,971.59
2016-07-16T08:29:47.821Z,971.6
2016-07-16T08:30:47.827Z,971.58
2016-07-16T08:31:47.829Z,971.56
2016-07-16T08:32:47.834Z,971.56
2016-07-16T08:33:47.845Z,971.55
2016-07-16T08:34:47.855Z,971.6
2016-07-16T08:35:47.859Z,971.59
2016-07-16T08:36:47.872Z,971.63
2016-07-16T08:37:47.884Z,971.67
2016-07-16T08:38:47.891Z,971.6
2016-07-16T08:39:47.901Z,971.6
2016-07-16T08:40:47.905Z,971.64
2016-07-16T08:41:47.915Z,971.6
2016-07-16T08:42:47.923Z,971.6
2016-07-16T08:43:47.925Z,971.58
2016-07-16T08:44:47.936Z,971.64
2016-07-16T08:45:47.948Z,971.57
2016-07-16T08:46:47.949Z,971.61
2016-07-16T08:47:47.965Z,971.65
2016-07-16T08:48:47.978Z,971.61
2016-07-16T08:49:47.970Z,971.66
2016-07-16T08:50:47.991Z,971.65
2016-07-16T08:51:47.990Z,971.69
2016-07-16T08:52:47.996Z,971.63
2016-07-16T08:53:48.011Z,971.65
2016-07-16T08:54:48.013Z,971.64
2016-07-16T08:55:48.022Z,971.65
2016-07-16T08:56:48.028Z,971.62
2016-07-16T08:57:48.035Z,971.63
2016-07-16T08:58:48.054Z,971.62
2016-07-16T08:59:48.059Z,971.62
2016-07-16T09:00:48.063Z,971.65
2016-07-16T09:01:48.079Z,971.59
2016-07-16T09:02:48.087Z,971.58
2016-07-16T09:03:48.084Z,971.61
2016-07-16T09:04:48.102Z,971.56
2016-07-16T09:05:48.110Z,971.59
2016-07-16T09:06:48.109Z,971.56
2016-07-16T09:07:48.118Z,971.57
2016-07-16T09:08:48.125Z,971.58
2016-07-16T09:09:48.134Z,971.55
2016-07-16T09:10:48.141Z,971.54
2016-07-16T09:11:48.150Z,971.55
2016-07-16T09:12:48.157Z,971.56
2016-07-16T09:13:48.170Z,971.52
2016-07-16T09:14:48.180Z,971.47
2016-07-16T09:15:48.190Z,971.45
2016-07-16T09:16:48.191Z,971.46
2016-07-16T09:17:48.203Z,971.51
2016-07-16T09:18:48.209Z,971.52
2016-07-16T09:19:48.222Z,971.48
2016-07-16T09:20:48.222Z,971.47
2016-07-16T09:21:48.230Z,971.45
2016-07-16T09:22:48.243Z,971.43
2016-07-16T09:23:48.248Z,971.4
2016-07-16T09:24:48.254Z,971.41
2016-07-16T09:25:48.260Z,971.4
2016-07-16T09:26:48.270Z,971.41
2016-07-16T09:27:48.283Z,971.41
2016-07-16T09:28:48.294Z,971.41
2016-07-16T09:29:48.305Z,971.42
2016-07-16T09:30:48.310Z,971.4
2016-07-16T09:31:48.310Z,971.43
2016-07-16T09:32:48.319Z,971.41
2016-07-16T09:33:48.334Z,971.42
2016-07-16T09:34:48.343Z,971.43
2016-07-16T09:35:48.343Z,971.38
2016-07-16T09:36:48.358Z,971.41
2016-07-16T09:37:48.362Z,971.35
2016-07-16T09:38:48.369Z,971.38
2016-07-16T09:39:48.380Z,971.33
2016-07-16T09:40:48.394Z,971.32
2016-07-16T09:41:48.393Z,971.29
2016-07-16T09:42:48.401Z,971.29
2016-07-16T09:43:48.410Z,971.31
2016-07-16T09:44:48.419Z,971.28
2016-07-16T09:45:48.423Z,971.28
2016-07-16T09:46:48.440Z,971.34
2016-07-16T09:47:48.448Z,971.32
2016-07-16T09:48:48.451Z,971.32
2016-07-16T09:49:48.460Z,971.36
2016-07-16T09:50:48.472Z,971.34
2016-07-16T09:51:48.471Z,971.32
2016-07-16T09:52:48.489Z,971.33
2016-07-16T09:53:48.492Z,971.34
2016-07-16T09:54:48.498Z,971.32
2016-07-16T09:55:48.512Z,971.37
2016-07-16T09:56:48.516Z,971.32
2016-07-16T09:57:48.519Z,971.34
2016-07-16T09:58:48.535Z,971.35
2016-07-16T09:59:48.546Z,971.34
2016-07-16T10:00:48.553Z,971.34
2016-07-16T10:01:48.553Z,971.32
2016-07-16T10:02:48.570Z,971.3
2016-07-16T10:03:48.570Z,971.32
2016-07-16T10:04:48.578Z,971.33
2016-07-16T10:05:48.584Z,971.31
2016-07-16T10:06:48.600Z,971.33
2016-07-16T10:07:48.610Z,971.31
2016-07-16T10:08:48.617Z,971.34
2016-07-16T10:09:48.627Z,971.29
2016-07-16T10:10:48.628Z,971.3
2016-07-16T10:11:48.639Z,971.29
2016-07-16T10:12:48.649Z,971.29
2016-07-16T10:13:48.648Z,971.29
2016-07-16T10:14:48.658Z,971.26
2016-07-16T10:15:48.666Z,971.3
2016-07-16T10:16:48.690Z,971.28
2016-07-16T10:17:48.680Z,971.28
2016-07-16T10:18:48.698Z,971.25
2016-07-16T10:19:48.701Z,971.26
2016-07-16T10:20:48.704Z,971.2
2016-07-16T10:21:48.715Z,971.21
2016-07-16T10:22:48.721Z,971.22
2016-07-16T10:23:48.731Z,971.23
2016-07-16T10:24:48.747Z,971.16
2016-07-16T10:25:48.754Z,971.18
2016-07-16T10:26:48.762Z,971.21
2016-07-16T10:27:48.767Z,971.2
2016-07-16T10:28:48.777Z,971.16
2016-07-16T10:29:48.787Z,971.16
2016-07-16T10:30:48.787Z,971.16
2016-07-16T10:31:48.797Z,971.14
2016-07-16T10:32:48.811Z,971.12
2016-07-16T10:33:48.811Z,971.13
2016-07-16T10:34:48.827Z,971.12
2016-07-16T10:35:48.836Z,971.13
2016-07-16T10:36:48.840Z,971.17
2016-07-16T10:37:48.846Z,971.14
2016-07-16T10:38:48.851Z,971.15
2016-07-16T10:39:48.859Z,971.12
2016-07-16T10:40:48.877Z,971.12
2016-07-16T10:41:48.876Z,971.11
2016-07-16T10:42:48.884Z,971.13
2016-07-16T10:43:48.893Z,971.13
2016-07-16T10:44:48.908Z,971.11
2016-07-16T10:45:48.910Z,971.1
2016-07-16T10:46:48.919Z,971.08
2016-07-16T10:47:48.925Z,971.08
2016-07-16T10:48:48.932Z,971.04
2016-07-16T10:49:48.948Z,971.05
2016-07-16T10:50:48.949Z,971.05
2016-07-16T10:51:48.957Z,971.05
2016-07-16T10:52:48.971Z,971.03
2016-07-16T10:53:48.973Z,971.03
2016-07-16T10:54:48.983Z,971.05
2016-07-16T10:55:48.996Z,971
2016-07-16T10:56:49.010Z,971
2016-07-16T10:57:49.006Z,970.99
2016-07-16T10:58:49.023Z,971.03
2016-07-16T10:59:49.030Z,971.01
2016-07-16T11:00:49.038Z,970.99
2016-07-16T11:02:01.864Z,971.03
2016-07-16T11:03:02.178Z,971
2016-07-16T11:04:01.887Z,971.03
2016-07-16T11:05:01.888Z,971.02
2016-07-16T11:06:01.897Z,970.97
2016-07-16T11:07:01.909Z,970.95
2016-07-16T11:08:01.918Z,970.99
2016-07-16T11:09:01.921Z,970.93
2016-07-16T11:10:01.926Z,970.95
2016-07-16T11:11:01.936Z,970.95
2016-07-16T11:12:01.953Z,970.97
2016-07-16T11:13:01.962Z,970.94
2016-07-16T11:14:01.972Z,970.94
2016-07-16T11:15:01.972Z,970.9
2016-07-16T11:16:02.184Z,970.91
2016-07-16T11:17:01.993Z,970.89
2016-07-16T11:18:01.993Z,970.88
2016-07-16T11:19:02.202Z,970.87
2016-07-16T11:20:02.011Z,970.85
2016-07-16T11:21:02.019Z,970.86
2016-07-16T11:22:02.034Z,970.85
2016-07-16T11:23:02.043Z,970.83
2016-07-16T11:24:02.045Z,970.82
2016-07-16T11:25:02.054Z,970.82
2016-07-16T11:26:02.259Z,970.87
2016-07-16T11:27:02.072Z,970.91
2016-07-16T11:28:02.078Z,970.86
2016-07-16T11:29:02.086Z,970.82
2016-07-16T11:30:02.302Z,970.82
2016-07-16T11:31:02.104Z,970.76
2016-07-16T11:32:02.412Z,970.75
2016-07-16T11:33:02.116Z,970.71
2016-07-16T11:34:02.126Z,970.71
2016-07-16T11:35:02.292Z,970.68
2016-07-16T11:36:02.143Z,970.62
2016-07-16T11:37:02.158Z,970.68
2016-07-16T11:38:02.167Z,970.67
2016-07-16T11:39:02.170Z,970.65
2016-07-16T11:40:02.436Z,970.65
2016-07-16T11:41:02.494Z,970.67
2016-07-16T11:42:02.193Z,970.65
2016-07-16T11:43:02.209Z,970.68
2016-07-16T11:44:02.411Z,970.69
2016-07-16T11:45:02.226Z,970.67
2016-07-16T11:46:02.225Z,970.67
2016-07-16T11:47:02.244Z,970.69
2016-07-16T11:48:02.402Z,970.72
2016-07-16T11:49:02.251Z,970.67
2016-07-16T11:50:02.262Z,970.69
2016-07-16T11:51:02.271Z,970.68
2016-07-16T11:52:02.526Z,970.62
2016-07-16T11:53:02.293Z,970.62
2016-07-16T11:54:02.301Z,970.64
2016-07-16T11:55:02.552Z,970.65
2016-07-16T11:56:02.312Z,970.57
2016-07-16T11:57:02.321Z,970.54
2016-07-16T11:58:02.478Z,970.63
2016-07-16T11:59:02.336Z,970.66
2016-07-16T12:00:02.405Z,970.7
2016-07-16T12:01:02.352Z,970.68
2016-07-16T12:02:02.420Z,970.69
2016-07-16T12:03:02.385Z,970.69
2016-07-16T12:04:02.389Z,970.7
2016-07-16T12:05:02.385Z,970.64
2016-07-16T12:06:02.546Z,970.67
2016-07-16T12:07:02.560Z,970.68
2016-07-16T12:08:02.418Z,970.66
2016-07-16T12:09:02.425Z,970.65
2016-07-16T12:10:02.484Z,970.64
2016-07-16T12:11:02.493Z,970.64
2016-07-16T12:12:02.448Z,970.64
2016-07-16T12:13:02.459Z,970.64
2016-07-16T12:14:02.470Z,970.63
2016-07-16T12:15:02.469Z,970.64
2016-07-16T12:16:02.480Z,970.61
2016-07-16T12:17:02.543Z,970.6
2016-07-16T12:18:02.495Z,970.62
2016-07-16T12:19:02.504Z,970.59
2016-07-16T12:20:02.514Z,970.59
2016-07-16T12:21:02.722Z,970.54
2016-07-16T12:22:02.528Z,970.57
2016-07-16T12:23:02.585Z,970.53
2016-07-16T12:24:02.547Z,970.53
2016-07-16T12:25:02.550Z,970.54
2016-07-16T12:26:02.570Z,970.53
2016-07-16T12:27:02.579Z,970.57
2016-07-16T12:28:02.585Z,970.48
2016-07-16T12:29:02.595Z,970.53
2016-07-16T12:30:02.702Z,970.52
2016-07-16T12:31:02.603Z,970.5
2016-07-16T12:32:02.616Z,970.49